»·PEaware :: SKW5442 KSFO-KPSP

SKW5442 :: KSFO-KPSP

FLIGHT INFORMATION

Flight Status: Arrived
Operator:
SkyWest Airlines
More flights by this operator :: More flights under this callsign
Pilot: Alfredo R. (12181)
Aircraft: CANADAIR CL-600 CRJ-200
(CRJ2)
More flights by this aircraft type
Origin: KSFO San Francisco Intl
United States
Destination: KPSP Palm Springs Intl
United States
More flights between these airports :: More routes between these airports
Route: +SSTIK4 LOSHN CLASN SIZLR3
File this flight plan on PilotEdge
Remarks: RMK / SIMBRIEF
Altitude:
(Current/Filed)
31,000ft
Speed:
(Current/Filed)
414kts
Departed: 24-Oct-20 03:32 PM
Arrived: 24-Oct-20 04:42 PM
Distance/Time
Traveled:
365nm/1:10
Distance/Time
To Go:
Arrived

Flight Plot

Page will automatically refresh every two minutes.

Flight plan parsing failed; only flown route is shown


Map Options




Map Legend


Flown Route
Filed Route
Departure Airport
Arrival Airport
Navaid (VOR, NDB)
Fix

Horizontal Profiles

Position Reports

Time Latitude Longitude Heading Altitude Ground
Speed
24-Oct-20 14:49 37.620194 -122.389387 27 18ft 0kts
24-Oct-20 14:50 37.620194 -122.389387 27 18ft 0kts
24-Oct-20 14:51 37.620194 -122.389387 27 18ft 0kts
24-Oct-20 14:52 37.620194 -122.389387 27 18ft 0kts
24-Oct-20 14:53 37.620194 -122.389387 27 18ft 0kts
24-Oct-20 14:54 37.620194 -122.389387 27 18ft 0kts
24-Oct-20 14:55 37.620194 -122.389387 27 18ft 0kts
24-Oct-20 14:56 37.620194 -122.389387 27 18ft 0kts
24-Oct-20 14:57 37.620194 -122.389387 27 18ft 0kts
24-Oct-20 14:58 37.620194 -122.389387 27 18ft 0kts
24-Oct-20 14:59 37.620194 -122.389387 27 18ft 0kts
24-Oct-20 15:00 37.620194 -122.389387 27 18ft 0kts
24-Oct-20 15:01 37.620194 -122.389387 27 18ft 0kts
24-Oct-20 15:02 37.620194 -122.389387 27 18ft 0kts
24-Oct-20 15:03 37.620194 -122.389387 27 18ft 0kts
24-Oct-20 15:04 37.620194 -122.389387 27 18ft 0kts
24-Oct-20 15:05 37.620194 -122.389387 27 18ft 0kts
24-Oct-20 15:06 37.620194 -122.389387 27 18ft 0kts
24-Oct-20 15:07 37.620194 -122.389387 27 18ft 0kts
24-Oct-20 15:08 37.620194 -122.389387 27 18ft 0kts
24-Oct-20 15:09 37.620194 -122.389387 27 18ft 0kts
24-Oct-20 15:10 37.620194 -122.389387 27 18ft 0kts
24-Oct-20 15:11 37.620194 -122.389387 27 18ft 0kts
24-Oct-20 15:12 37.620194 -122.389387 26 18ft 0kts
24-Oct-20 15:13 37.620194 -122.389387 27 18ft 0kts
24-Oct-20 15:14 37.620197 -122.389384 26 18ft 0kts
24-Oct-20 15:15 37.619707 -122.389695 26 18ft 2kts
24-Oct-20 15:16 37.619254 -122.389420 297 18ft 2kts
24-Oct-20 15:17 37.619821 -122.390743 298 18ft 2kts
24-Oct-20 15:18 37.620147 -122.391541 297 18ft 0kts
24-Oct-20 15:19 37.620147 -122.391542 297 18ft 0kts
24-Oct-20 15:20 37.620147 -122.391542 297 18ft 0kts
24-Oct-20 15:21 37.620395 -122.392008 326 18ft 5kts
24-Oct-20 15:23 37.622490 -122.390087 72 18ft 13kts
24-Oct-20 15:24 37.621548 -122.386929 105 18ft 10kts
24-Oct-20 15:25 37.619678 -122.382059 117 18ft 17kts
24-Oct-20 15:26 37.616668 -122.379639 202 18ft 15kts
24-Oct-20 15:27 37.612177 -122.382585 208 18ft 15kts
24-Oct-20 15:28 37.609506 -122.384592 215 18ft 12kts
24-Oct-20 15:29 37.608450 -122.383818 118 18ft 0kts
24-Oct-20 15:30 37.608450 -122.383818 118 18ft 0kts
24-Oct-20 15:31 37.609678 -122.381765 26 18ft 12kts
24-Oct-20 15:32 37.633862 -122.367315 12 600ft 176kts
24-Oct-20 15:33 37.679547 -122.371104 310 3605ft 146kts
24-Oct-20 15:34 37.657269 -122.407890 197 5660ft 213kts
24-Oct-20 15:35 37.606474 -122.427814 198 7801ft 242kts
24-Oct-20 15:36 37.531526 -122.457839 198 10025ft 267kts
24-Oct-20 15:37 37.467231 -122.436432 131 10044ft 293kts
24-Oct-20 15:37 37.433101 -122.385799 129 10026ft 298kts
24-Oct-20 15:39 37.376855 -122.298977 129 12557ft 342kts
24-Oct-20 15:39 37.326675 -122.221293 129 14897ft 352kts
24-Oct-20 15:41 37.252681 -122.107069 128 17845ft 369kts
24-Oct-20 15:41 37.199024 -122.024540 127 19867ft 375kts
24-Oct-20 15:42 37.131247 -121.920453 125 22484ft 393kts
24-Oct-20 15:43 37.061033 -121.812941 125 24976ft 406kts
24-Oct-20 15:44 36.988114 -121.701695 124 27329ft 417kts
24-Oct-20 15:45 36.913327 -121.587993 124 29376ft 431kts
24-Oct-20 15:46 36.837567 -121.473129 124 30990ft 448kts
24-Oct-20 15:47 36.758223 -121.353414 124 30997ft 435kts
24-Oct-20 15:48 36.690852 -121.252078 124 31011ft 419kts
24-Oct-20 15:49 36.614882 -121.138102 123 31001ft 405kts
24-Oct-20 15:50 36.542781 -121.030328 124 31000ft 393kts
24-Oct-20 15:51 36.473933 -120.927492 124 31008ft 382kts
24-Oct-20 15:52 36.405678 -120.825209 123 30981ft 395kts
24-Oct-20 15:53 36.333976 -120.718038 124 32710ft 412kts
24-Oct-20 15:54 36.258677 -120.605882 126 34635ft 428kts
24-Oct-20 15:55 36.179699 -120.488665 129 34964ft 460kts
24-Oct-20 15:56 36.094128 -120.362327 129 34959ft 474kts
24-Oct-20 15:57 36.013137 -120.243018 130 34948ft 447kts
24-Oct-20 15:58 35.933683 -120.126357 131 34959ft 436kts
24-Oct-20 15:59 35.858106 -120.015553 129 34955ft 444kts
24-Oct-20 16:00 35.801742 -119.878142 116 34952ft 445kts
24-Oct-20 16:01 35.749590 -119.739655 115 34954ft 441kts
24-Oct-20 16:02 35.696651 -119.599344 116 34959ft 451kts
24-Oct-20 16:03 35.634246 -119.464890 137 34967ft 446kts
24-Oct-20 16:04 35.551508 -119.355885 135 34955ft 431kts
24-Oct-20 16:05 35.474805 -119.252671 136 34960ft 419kts
24-Oct-20 16:06 35.394733 -119.145150 137 34963ft 434kts
24-Oct-20 16:07 35.312356 -119.034990 137 34959ft 435kts
24-Oct-20 16:08 35.229328 -118.924701 139 33308ft 436kts
24-Oct-20 16:09 35.148315 -118.817744 141 31784ft 419kts
24-Oct-20 16:10 35.067621 -118.711389 142 30590ft 439kts
24-Oct-20 16:11 34.982102 -118.599247 142 29849ft 447kts
24-Oct-20 16:12 34.898379 -118.489667 142 28633ft 431kts
24-Oct-20 16:13 34.818925 -118.386032 142 27503ft 424kts
24-Oct-20 16:14 34.748119 -118.285618 136 26278ft 424kts
24-Oct-20 16:15 34.678734 -118.178255 137 24937ft 413kts
24-Oct-20 16:16 34.609913 -118.072058 136 23569ft 405kts
24-Oct-20 16:17 34.549867 -117.952537 123 22136ft 408kts
24-Oct-20 16:18 34.499699 -117.830336 123 20735ft 399kts
24-Oct-20 16:19 34.450658 -117.710993 122 19341ft 389kts
24-Oct-20 16:20 34.403020 -117.594424 122 18160ft 384kts
24-Oct-20 16:21 34.356400 -117.480626 122 16977ft 374kts
24-Oct-20 16:22 34.310335 -117.368510 121 16210ft 363kts
24-Oct-20 16:23 34.261242 -117.259948 125 16205ft 364kts
24-Oct-20 16:24 34.210334 -117.151145 125 16205ft 365kts
24-Oct-20 16:25 34.159631 -117.043235 125 16206ft 366kts
24-Oct-20 16:26 34.108596 -116.934762 125 16014ft 366kts
24-Oct-20 16:27 34.058783 -116.828263 124 14634ft 355kts
24-Oct-20 16:28 34.019510 -116.720924 111 13416ft 345kts
24-Oct-20 16:29 33.990176 -116.611833 111 12194ft 334kts
24-Oct-20 16:30 33.946789 -116.518033 134 10986ft 313kts
24-Oct-20 16:31 33.895618 -116.437840 131 9648ft 285kts
24-Oct-20 16:32 33.851601 -116.369357 130 8997ft 244kts
24-Oct-20 16:33 33.810140 -116.304708 131 9000ft 253kts
24-Oct-20 16:34 33.766906 -116.240028 144 8003ft 257kts
24-Oct-20 16:35 33.715305 -116.264757 262 5717ft 233kts
24-Oct-20 16:36 33.711978 -116.340738 302 4645ft 204kts
24-Oct-20 16:37 33.741054 -116.393430 300 3968ft 187kts
24-Oct-20 16:38 33.770080 -116.447575 305 2504ft 184kts
24-Oct-20 16:39 33.805768 -116.486579 324 846ft 159kts
24-Oct-20 16:40 33.833088 -116.510736 322 482ft 55kts
24-Oct-20 16:41 33.836279 -116.514695 215 482ft 0kts
24-Oct-20 16:42 33.834412 -116.514028 143 482ft 16kts
24-Oct-20 16:43 33.829871 -116.509983 143 482ft 20kts
24-Oct-20 16:44 33.825843 -116.506304 144 482ft 18kts
24-Oct-20 16:45 33.822803 -116.504643 233 482ft 11kts
24-Oct-20 16:46 33.819788 -116.506417 260 482ft 11kts
24-Oct-20 16:47 33.820678 -116.507565 341 482ft 2kts
24-Oct-20 16:48 33.820907 -116.507575 29 482ft 0kts
24-Oct-20 16:49 33.820913 -116.507571 29 482ft 0kts
24-Oct-20 16:50 33.820913 -116.507571 29 482ft 0kts
24-Oct-20 16:51 33.820913 -116.507571 29 482ft 0kts
24-Oct-20 16:52 33.820913 -116.507571 29 482ft 0kts

Navigation Log

Ident Type
Flight plan parsing failed, navigation log unavailable